< < Back
Terminal Aerodrome Forecast


Current Version              Previous Versions:   1  2  3  4  5  6  7  8  9  

Terminal Aerodrome Forecast

603
FTUS42 KCAE 280230 AAC
TAFCAE
TAF AMD
KCAE 280230Z 2803/2824 24005KT P6SM SKC
     FM281300 24008KT P6SM FEW250
     FM281800 25010G15KT P6SM SCT060=

Latest METAR

286
SAUS80 KWBC 280400 CCA
MTRCAE
METAR KCAE 280356Z 22005KT 10SM CLR 29/21 A2997 RMK AO2 SLP143
T02940211


USA.gov is the U.S. government's official web portal to all federal, state and local government web resources and services.